createdAt,value
2019-03-20T00:01:46.653Z,4.97
2019-03-20T00:04:21.993Z,4.87
2019-03-20T00:06:57.643Z,4.90
2019-03-20T00:09:33.007Z,5.63
2019-03-20T00:12:08.945Z,4.87
2019-03-20T00:14:44.286Z,5.23
2019-03-20T00:17:19.966Z,5.10
2019-03-20T00:19:55.147Z,5.50
2019-03-20T00:22:30.162Z,5.00
2019-03-20T00:25:06.595Z,4.77
2019-03-20T00:27:42.693Z,4.57
2019-03-20T00:30:19.217Z,4.77
2019-03-20T00:32:54.544Z,5.00
2019-03-20T00:35:29.913Z,4.77
2019-03-20T00:38:05.063Z,4.43
2019-03-20T00:40:41.069Z,4.70
2019-03-20T00:43:16.094Z,4.07
2019-03-20T00:45:51.216Z,5.00
2019-03-20T00:48:26.248Z,4.77
2019-03-20T00:51:01.810Z,5.80
2019-03-20T00:53:36.658Z,4.00
2019-03-20T00:56:12.939Z,5.60
2019-03-20T00:58:47.972Z,3.40
2019-03-20T01:01:22.982Z,3.17
2019-03-20T01:03:58.344Z,3.53
2019-03-20T01:06:33.814Z,2.33
2019-03-20T01:09:08.648Z,3.70
2019-03-20T01:11:43.678Z,3.33
2019-03-20T01:14:18.701Z,4.20
2019-03-20T01:16:53.838Z,3.53
2019-03-20T01:19:29.286Z,4.20
2019-03-20T01:22:07.061Z,3.83
2019-03-20T01:24:42.086Z,3.67
2019-03-20T01:27:17.110Z,3.33
2019-03-20T01:29:52.119Z,3.60
2019-03-20T01:32:27.150Z,3.70
2019-03-20T01:35:02.465Z,3.50
2019-03-20T01:37:39.549Z,3.67
2019-03-20T01:40:14.229Z,3.73
2019-03-20T01:42:50.044Z,4.10
2019-03-20T01:45:24.624Z,3.97
2019-03-20T01:47:59.455Z,3.60
2019-03-20T01:50:34.138Z,4.23
2019-03-20T01:53:09.660Z,3.63
2019-03-20T01:55:44.491Z,3.43
2019-03-20T01:58:19.499Z,5.07
2019-03-20T02:00:54.184Z,3.43
2019-03-20T02:03:28.995Z,3.63
2019-03-20T02:06:03.892Z,3.60
2019-03-20T02:08:39.063Z,4.33
2019-03-20T02:11:13.562Z,3.27
2019-03-20T02:13:48.517Z,3.50
2019-03-20T02:16:23.338Z,4.33
2019-03-20T02:18:58.368Z,5.00
2019-03-20T02:21:33.702Z,5.47
2019-03-20T02:24:08.734Z,6.23
2019-03-20T02:26:43.755Z,6.43
2019-03-20T02:29:18.788Z,7.17
2019-03-20T02:31:53.875Z,6.53
2019-03-20T02:34:28.903Z,5.57
2019-03-20T02:37:04.121Z,3.93
2019-03-20T02:39:39.811Z,4.23
2019-03-20T02:42:14.386Z,4.47
2019-03-20T02:44:49.290Z,3.80
2019-03-20T02:47:24.314Z,6.07
2019-03-20T02:49:59.012Z,3.90
2019-03-20T02:52:34.135Z,6.13
2019-03-20T02:55:11.643Z,3.10
2019-03-20T02:57:47.071Z,4.83
2019-03-20T03:00:21.848Z,3.47
2019-03-20T03:02:56.790Z,3.83
2019-03-20T03:05:32.072Z,3.00
2019-03-20T03:08:07.413Z,3.47
2019-03-20T03:10:42.788Z,3.87
2019-03-20T03:13:17.902Z,2.77
2019-03-20T03:15:53.459Z,3.53
2019-03-20T03:18:28.463Z,4.00
2019-03-20T03:21:03.165Z,3.63
2019-03-20T03:23:39.078Z,3.67
2019-03-20T03:26:14.099Z,3.37
2019-03-20T03:28:49.444Z,4.00
2019-03-20T03:31:24.930Z,4.03
2019-03-20T03:34:00.427Z,3.43
2019-03-20T03:36:35.136Z,3.47
2019-03-20T03:39:09.972Z,3.40
2019-03-20T03:41:44.768Z,3.27
2019-03-20T03:44:19.661Z,3.20
2019-03-20T03:46:54.504Z,3.80
2019-03-20T03:49:29.540Z,4.20
2019-03-20T03:52:04.850Z,4.67
2019-03-20T03:54:39.864Z,3.07
2019-03-20T03:57:15.331Z,2.90
2019-03-20T03:59:50.734Z,3.10
2019-03-20T04:02:25.255Z,3.20
2019-03-20T04:05:00.599Z,3.43
2019-03-20T04:07:35.335Z,2.90
2019-03-20T04:10:15.737Z,3.77
2019-03-20T04:12:50.534Z,2.70
2019-03-20T04:15:25.709Z,3.50
2019-03-20T04:18:01.455Z,2.60
2019-03-20T04:20:36.679Z,3.63
2019-03-20T04:23:11.389Z,3.70
2019-03-20T04:25:46.225Z,3.33
2019-03-20T04:28:20.905Z,5.53
2019-03-20T04:30:55.420Z,3.17
2019-03-20T04:33:29.992Z,4.40
2019-03-20T04:36:07.588Z,4.17
2019-03-20T04:38:42.270Z,5.90
2019-03-20T04:41:18.138Z,4.10
2019-03-20T04:43:52.636Z,6.57
2019-03-20T04:46:27.475Z,4.80
2019-03-20T04:49:02.062Z,6.33
2019-03-20T04:51:36.837Z,4.27
2019-03-20T04:54:12.436Z,4.00
2019-03-20T04:56:47.210Z,4.60
2019-03-20T04:59:22.633Z,4.93
2019-03-20T05:01:57.477Z,3.97
2019-03-20T05:04:32.062Z,4.60
2019-03-20T05:07:06.565Z,4.57
2019-03-20T05:09:41.077Z,4.80
2019-03-20T05:12:15.913Z,3.80
2019-03-20T05:14:51.005Z,3.83
2019-03-20T05:17:25.526Z,3.63
2019-03-20T05:20:01.014Z,4.13
2019-03-20T05:22:35.545Z,4.03
2019-03-20T05:25:10.080Z,3.93
2019-03-20T05:27:44.580Z,5.47
2019-03-20T05:30:19.092Z,4.00
2019-03-20T05:32:53.600Z,4.13
2019-03-20T05:35:28.161Z,4.00
2019-03-20T05:38:02.658Z,4.73
2019-03-20T05:40:37.494Z,4.50
2019-03-20T05:43:11.991Z,4.70
2019-03-20T05:45:46.818Z,4.70
2019-03-20T05:48:22.255Z,6.80
2019-03-20T05:50:57.103Z,4.30
2019-03-20T05:53:32.249Z,3.50
2019-03-20T05:56:07.149Z,3.83
2019-03-20T05:58:43.745Z,3.83
2019-03-20T06:01:18.560Z,3.90
2019-03-20T06:03:53.605Z,4.00
2019-03-20T06:06:28.623Z,4.20
2019-03-20T06:09:06.094Z,3.37
2019-03-20T06:11:40.593Z,4.67
2019-03-20T06:14:15.118Z,3.77
2019-03-20T06:16:49.679Z,4.40
2019-03-20T06:19:24.501Z,5.30
2019-03-20T06:22:00.110Z,7.50
2019-03-20T06:24:34.595Z,4.73
2019-03-20T06:27:09.439Z,3.63
2019-03-20T06:29:44.734Z,3.50
2019-03-20T06:32:20.218Z,3.00
2019-03-20T06:34:54.838Z,4.17
2019-03-20T06:37:32.754Z,3.83
2019-03-20T06:40:07.805Z,5.90
2019-03-20T06:42:42.723Z,3.60
2019-03-20T06:45:21.365Z,7.33
2019-03-20T06:47:55.872Z,3.90
2019-03-20T06:50:30.727Z,3.30
2019-03-20T06:53:05.314Z,3.30
2019-03-20T06:55:39.843Z,3.50
2019-03-20T06:58:18.460Z,3.67
2019-03-20T07:00:55.854Z,3.73
2019-03-20T07:03:50.723Z,4.57
2019-03-20T07:06:30.186Z,4.03
2019-03-20T07:09:12.497Z,4.53
2019-03-20T07:11:47.101Z,7.43
2019-03-20T07:14:21.613Z,5.00
2019-03-20T07:16:56.485Z,3.60
2019-03-20T07:19:31.534Z,3.53
2019-03-20T07:22:07.035Z,4.30
2019-03-20T07:24:42.482Z,3.83
2019-03-20T07:27:22.790Z,3.90
2019-03-20T07:29:58.306Z,3.40
2019-03-20T07:32:33.176Z,8.23
2019-03-20T07:35:09.176Z,4.13
2019-03-20T07:37:55.324Z,4.87
2019-03-20T07:40:23.570Z,3.90
2019-03-20T07:43:08.139Z,4.07
2019-03-20T07:45:36.301Z,3.90
2019-03-20T07:48:22.139Z,5.13
2019-03-20T07:50:58.255Z,4.70
2019-03-20T07:53:34.075Z,4.03
2019-03-20T07:56:10.051Z,5.30
2019-03-20T07:58:51.621Z,6.03
2019-03-20T08:01:30.669Z,3.13
2019-03-20T08:04:11.556Z,3.87
2019-03-20T08:06:46.162Z,3.67
2019-03-20T08:09:21.727Z,4.63
2019-03-20T08:11:56.305Z,10.50
2019-03-20T08:14:30.862Z,6.70
2019-03-20T08:17:06.984Z,3.83
2019-03-20T08:19:54.902Z,3.80
2019-03-20T08:22:34.089Z,4.13
2019-03-20T08:25:15.868Z,4.20
2019-03-20T08:27:53.953Z,3.47
2019-03-20T08:30:30.908Z,3.53
2019-03-20T08:33:06.646Z,3.00
2019-03-20T08:35:42.352Z,3.97
2019-03-20T08:38:19.080Z,4.37
2019-03-20T08:40:53.766Z,2.90
2019-03-20T08:43:30.512Z,2.87
2019-03-20T08:46:12.450Z,3.70
2019-03-20T08:48:48.375Z,3.37
2019-03-20T08:51:24.047Z,3.63
2019-03-20T08:53:58.897Z,2.73
2019-03-20T08:56:34.859Z,3.57
2019-03-20T08:59:09.368Z,2.93
2019-03-20T09:01:45.150Z,4.50
2019-03-20T09:04:28.131Z,3.67
2019-03-20T09:07:14.084Z,3.10
2019-03-20T09:09:55.320Z,3.13
2019-03-20T09:12:36.205Z,2.90
2019-03-20T09:15:18.695Z,2.53
2019-03-20T09:17:54.573Z,2.23
2019-03-20T09:20:30.074Z,2.37
2019-03-20T09:23:05.565Z,2.97
2019-03-20T09:25:43.523Z,2.87
2019-03-20T09:28:19.194Z,3.27
2019-03-20T09:30:54.334Z,3.17
2019-03-20T09:33:34.485Z,3.30
2019-03-20T09:36:09.830Z,5.37
2019-03-20T09:38:48.889Z,2.73
2019-03-20T09:41:24.396Z,2.53
2019-03-20T09:43:59.772Z,7.30
2019-03-20T09:46:34.359Z,4.57
2019-03-20T09:49:13.564Z,3.40
2019-03-20T09:52:04.337Z,3.33
2019-03-20T09:54:47.426Z,3.30
2019-03-20T09:57:24.422Z,3.07
2019-03-20T10:00:03.743Z,3.07
2019-03-20T10:02:38.946Z,3.95
2019-03-20T10:05:21.348Z,3.40
2019-03-20T10:08:08.243Z,3.50
2019-03-20T10:10:48.126Z,3.90
2019-03-20T10:16:33.997Z,3.03
2019-03-20T10:19:16.443Z,3.97
2019-03-20T10:21:54.776Z,5.40
2019-03-20T10:24:30.275Z,4.73
2019-03-20T10:27:18.325Z,3.90
2019-03-20T10:30:11.233Z,4.23
2019-03-20T10:32:51.443Z,5.00
2019-03-20T10:35:29.826Z,4.47
2019-03-20T10:38:04.809Z,4.00
2019-03-20T10:40:52.137Z,5.13
2019-03-20T10:43:31.971Z,6.20
2019-03-20T10:46:21.385Z,5.10
2019-03-20T10:49:13.563Z,5.67
2019-03-20T11:04:29.677Z,5.78
2019-03-20T11:07:07.410Z,5.73
2019-03-20T11:12:58.753Z,4.77
2019-03-20T11:18:53.538Z,5.90
2019-03-20T11:21:35.203Z,7.03
2019-03-20T11:24:18.135Z,5.93
2019-03-20T11:27:02.423Z,6.17
2019-03-20T11:29:39.267Z,5.57
2019-03-20T11:32:14.437Z,6.07
2019-03-20T11:34:52.429Z,6.67
2019-03-20T11:37:37.814Z,6.67
2019-03-20T11:40:23.280Z,6.57
2019-03-20T11:43:03.334Z,7.63
2019-03-20T11:45:42.288Z,7.60
2019-03-20T11:48:33.306Z,7.40
2019-03-20T11:51:10.370Z,7.67
2019-03-20T11:53:49.476Z,8.33
2019-03-20T11:56:27.808Z,7.67
2019-03-20T11:59:03.303Z,8.63
2019-03-20T12:01:44.291Z,6.80
2019-03-20T12:04:22.259Z,7.20
2019-03-20T12:06:57.956Z,8.40
2019-03-20T12:09:40.961Z,7.10
2019-03-20T12:12:13.510Z,6.43
2019-03-20T12:14:49.008Z,7.50
2019-03-20T12:17:25.002Z,7.70
2019-03-20T12:20:02.338Z,8.80
2019-03-20T12:22:39.575Z,7.87
2019-03-20T12:25:20.748Z,8.63
2019-03-20T12:27:56.979Z,8.03
2019-03-20T12:30:34.773Z,7.27
2019-03-20T12:33:12.267Z,6.90
2019-03-20T12:35:49.456Z,6.53
2019-03-20T12:38:26.261Z,8.53
2019-03-20T12:41:07.533Z,8.03
2019-03-20T12:43:46.494Z,5.97
2019-03-20T12:46:40.881Z,7.63
2019-03-20T12:49:10.897Z,8.07
2019-03-20T12:51:55.504Z,7.77
2019-03-20T12:54:38.123Z,8.40
2019-03-20T12:57:15.178Z,7.53
2019-03-20T12:59:50.215Z,7.20
2019-03-20T13:02:26.167Z,8.03
2019-03-20T13:05:00.703Z,7.80
2019-03-20T13:07:37.898Z,10.13
2019-03-20T13:10:15.224Z,9.30
2019-03-20T13:12:52.641Z,9.30
2019-03-20T13:15:28.872Z,9.43
2019-03-20T13:18:03.950Z,9.13
2019-03-20T13:20:41.787Z,11.80
2019-03-20T13:23:23.733Z,10.93
2019-03-20T13:26:00.856Z,9.20
2019-03-20T13:28:35.976Z,9.70
2019-03-20T13:31:23.254Z,9.50
2019-03-20T13:33:59.925Z,9.13
2019-03-20T13:36:35.845Z,10.13
2019-03-20T13:39:11.200Z,12.53
2019-03-20T13:41:48.215Z,9.70
2019-03-20T13:44:24.246Z,9.60
2019-03-20T13:47:01.370Z,9.83
2019-03-20T13:49:36.440Z,9.53
2019-03-20T13:52:14.419Z,10.20
2019-03-20T13:54:49.861Z,10.07
2019-03-20T13:57:25.309Z,10.23
2019-03-20T14:00:00.390Z,11.93
2019-03-20T14:02:35.489Z,9.83
2019-03-20T14:05:17.967Z,11.40
2019-03-20T14:07:55.957Z,9.43
2019-03-20T14:10:34.211Z,13.10
2019-03-20T14:13:24.225Z,11.07
2019-03-20T14:15:59.056Z,11.03
2019-03-20T14:18:35.867Z,12.13
2019-03-20T14:21:10.925Z,12.57
2019-03-20T14:23:48.220Z,11.43
2019-03-20T14:26:24.024Z,10.90
2019-03-20T14:29:05.390Z,10.67
2019-03-20T14:31:59.634Z,15.37
2019-03-20T14:34:41.698Z,14.40
2019-03-20T14:37:17.620Z,12.70
2019-03-20T14:39:53.878Z,14.77
2019-03-20T14:42:32.268Z,14.40
2019-03-20T14:45:11.413Z,12.23
2019-03-20T14:47:46.590Z,11.77
2019-03-20T14:50:36.573Z,12.17
2019-03-20T14:53:15.626Z,12.47
2019-03-20T14:55:51.388Z,11.77
2019-03-20T14:58:28.402Z,11.33
2019-03-20T15:01:04.846Z,12.17
2019-03-20T15:03:40.886Z,12.07
2019-03-20T15:06:15.927Z,11.17
2019-03-20T15:08:50.985Z,11.67
2019-03-20T15:11:29.205Z,11.57
2019-03-20T15:14:04.233Z,12.10
2019-03-20T15:16:40.998Z,12.00
2019-03-20T15:19:16.108Z,11.03
2019-03-20T15:21:55.774Z,11.53
2019-03-20T15:24:31.994Z,12.03
2019-03-20T15:27:08.094Z,10.63
2019-03-20T15:29:43.650Z,9.57
2019-03-20T15:32:19.599Z,9.80
2019-03-20T15:34:54.632Z,9.17
2019-03-20T15:37:29.762Z,8.30
2019-03-20T15:40:08.364Z,8.13
2019-03-20T15:42:43.496Z,7.67
2019-03-20T15:45:20.195Z,6.10
2019-03-20T15:47:55.230Z,7.57
2019-03-20T15:50:30.447Z,5.53
2019-03-20T15:53:05.823Z,5.93
2019-03-20T15:55:42.023Z,8.57
2019-03-20T15:58:18.035Z,7.90
2019-03-20T16:00:53.457Z,6.30
2019-03-20T16:03:33.563Z,5.93
2019-03-20T16:06:08.642Z,6.53
2019-03-20T16:08:43.778Z,6.47
2019-03-20T16:11:19.454Z,5.97
2019-03-20T16:13:54.477Z,7.30
2019-03-20T16:16:33.049Z,7.73
2019-03-20T16:19:08.814Z,7.20
2019-03-20T16:21:44.042Z,8.73
2019-03-20T16:24:19.107Z,7.50
2019-03-20T16:26:55.415Z,8.67
2019-03-20T16:29:31.092Z,10.13
2019-03-20T16:32:07.183Z,7.63
2019-03-20T16:34:42.242Z,7.40
2019-03-20T16:37:18.487Z,11.13
2019-03-20T16:39:54.542Z,9.87
2019-03-20T16:42:29.821Z,7.87
2019-03-20T16:45:08.454Z,7.00
2019-03-20T16:47:43.489Z,8.57
2019-03-20T16:50:20.762Z,7.50
2019-03-20T16:52:55.952Z,8.37
2019-03-20T16:55:32.076Z,6.13
2019-03-20T16:58:08.085Z,6.30
2019-03-20T17:00:44.027Z,6.53
2019-03-20T17:03:20.384Z,6.93
2019-03-20T17:05:55.891Z,6.67
2019-03-20T17:08:34.182Z,6.50
2019-03-20T17:11:10.590Z,7.33
2019-03-20T17:13:45.633Z,6.97
2019-03-20T17:16:21.962Z,5.90
2019-03-20T17:18:56.999Z,6.43
2019-03-20T17:21:35.157Z,6.87
2019-03-20T17:24:10.690Z,5.17
2019-03-20T17:26:46.716Z,7.07
2019-03-20T17:29:22.878Z,6.37
2019-03-20T17:31:59.204Z,5.53
2019-03-20T17:34:34.234Z,6.00
2019-03-20T17:37:09.635Z,6.10
2019-03-20T17:39:45.062Z,9.47
2019-03-20T17:42:20.098Z,5.93
2019-03-20T17:44:55.123Z,6.23
2019-03-20T17:47:30.242Z,9.43
2019-03-20T17:50:09.893Z,7.53
2019-03-20T17:52:45.870Z,8.23
2019-03-20T17:55:22.244Z,7.77
2019-03-20T17:57:59.532Z,6.13
2019-03-20T18:00:44.096Z,6.90
2019-03-20T18:03:19.448Z,7.03
2019-03-20T18:05:55.459Z,6.17
2019-03-20T18:08:31.742Z,6.13
2019-03-20T18:11:09.042Z,6.07
2019-03-20T18:13:44.897Z,7.13
2019-03-20T18:16:20.234Z,6.87
2019-03-20T18:18:55.575Z,6.73
2019-03-20T18:21:30.629Z,6.40
2019-03-20T18:24:05.710Z,8.33
2019-03-20T18:26:41.098Z,6.73
2019-03-20T18:29:17.037Z,7.57
2019-03-20T18:31:53.517Z,6.23
2019-03-20T18:34:29.785Z,6.20
2019-03-20T18:37:05.441Z,6.03
2019-03-20T18:39:40.489Z,6.20
2019-03-20T18:42:15.555Z,5.77
2019-03-20T18:44:50.669Z,6.90
2019-03-20T18:47:26.082Z,6.17
2019-03-20T18:50:01.434Z,5.97
2019-03-20T18:52:38.821Z,6.40
2019-03-20T18:55:16.157Z,6.33
2019-03-20T18:57:51.190Z,5.60
2019-03-20T19:00:34.127Z,6.97
2019-03-20T19:03:15.330Z,10.53
2019-03-20T19:05:56.526Z,5.87
2019-03-20T19:08:31.655Z,7.83
2019-03-20T19:11:07.418Z,5.63
2019-03-20T19:13:42.871Z,5.20
2019-03-20T19:16:17.955Z,6.33
2019-03-20T19:18:53.334Z,6.83
2019-03-20T19:21:28.384Z,5.43
2019-03-20T19:24:05.467Z,6.50
2019-03-20T19:26:42.513Z,6.37
2019-03-20T19:29:20.934Z,5.67
2019-03-20T19:31:58.249Z,6.07
2019-03-20T19:34:33.606Z,5.73
2019-03-20T19:37:08.645Z,6.60
2019-03-20T19:39:44.047Z,12.03
2019-03-20T19:42:20.108Z,6.47
2019-03-20T19:44:55.518Z,6.43
2019-03-20T19:47:30.815Z,6.10
2019-03-20T19:50:22.549Z,6.13
2019-03-20T19:52:57.584Z,6.17
2019-03-20T19:55:32.625Z,6.20
2019-03-20T19:58:08.061Z,6.67
2019-03-20T20:00:43.414Z,6.17
2019-03-20T20:03:19.045Z,6.03
2019-03-20T20:05:54.489Z,5.27
2019-03-20T20:08:29.842Z,7.03
2019-03-20T20:11:04.873Z,6.40
2019-03-20T20:13:41.271Z,6.57
2019-03-20T20:16:16.365Z,5.53
2019-03-20T20:18:51.718Z,6.37
2019-03-20T20:21:28.691Z,11.27
2019-03-20T20:24:03.723Z,7.60
2019-03-20T20:26:38.779Z,8.33
2019-03-20T20:29:13.810Z,6.03
2019-03-20T20:31:50.167Z,6.00
2019-03-20T20:34:26.262Z,8.57
2019-03-20T20:37:01.675Z,7.03
2019-03-20T20:39:36.894Z,9.27
2019-03-20T20:42:13.891Z,5.80
2019-03-20T20:44:48.927Z,7.73
2019-03-20T20:47:24.988Z,6.30
2019-03-20T20:50:00.017Z,6.80
2019-03-20T20:52:35.973Z,6.73
2019-03-20T20:55:14.730Z,8.00
2019-03-20T20:57:50.765Z,7.50
2019-03-20T21:00:27.186Z,7.17
2019-03-20T21:03:02.229Z,7.57
2019-03-20T21:05:37.258Z,7.00
2019-03-20T21:08:12.659Z,7.37
2019-03-20T21:10:47.704Z,8.33
2019-03-20T21:13:23.017Z,7.57
2019-03-20T21:15:58.077Z,7.70
2019-03-20T21:18:49.019Z,7.87
2019-03-20T21:21:25.206Z,7.93
2019-03-20T21:24:23.102Z,9.13
2019-03-20T21:27:04.982Z,8.20
2019-03-20T21:30:03.601Z,8.57
2019-03-20T21:32:47.312Z,8.17
2019-03-20T21:35:53.233Z,8.23
2019-03-20T21:38:29.869Z,8.87
2019-03-20T21:41:15.030Z,8.83
2019-03-20T21:43:55.919Z,9.73
2019-03-20T21:46:55.091Z,8.03
2019-03-20T21:49:30.766Z,8.33
2019-03-20T21:52:05.810Z,9.37
2019-03-20T21:55:11.841Z,9.20
2019-03-20T21:57:52.107Z,8.77
2019-03-20T22:01:05.315Z,10.33
2019-03-20T22:03:43.676Z,9.07
2019-03-20T22:06:58.730Z,8.67
2019-03-20T22:09:53.413Z,9.33
2019-03-20T22:12:35.249Z,8.73
2019-03-20T22:15:14.047Z,9.00
2019-03-20T22:18:06.383Z,9.20
2019-03-20T22:20:47.981Z,12.30
2019-03-20T22:23:40.600Z,9.87
2019-03-20T22:26:39.311Z,9.97
2019-03-20T22:29:21.236Z,9.57
2019-03-20T22:32:31.929Z,10.97
2019-03-20T22:35:27.693Z,10.93
2019-03-20T22:38:05.360Z,11.10
2019-03-20T22:41:21.696Z,11.20
2019-03-20T22:43:59.698Z,10.73
2019-03-20T22:46:50.813Z,11.40
2019-03-20T22:49:48.073Z,12.17
2019-03-20T22:52:35.799Z,12.00
2019-03-20T22:55:26.915Z,12.67
2019-03-20T22:58:27.755Z,12.90
2019-03-20T23:01:02.799Z,17.40
2019-03-20T23:03:41.212Z,13.33
2019-03-20T23:06:17.261Z,13.47
2019-03-20T23:08:52.294Z,13.43
2019-03-20T23:11:27.744Z,15.23
2019-03-20T23:14:02.768Z,17.20
2019-03-20T23:16:38.117Z,14.83
2019-03-20T23:19:13.245Z,15.47
2019-03-20T23:21:48.701Z,15.03
2019-03-20T23:24:23.816Z,14.63
2019-03-20T23:27:01.079Z,16.10
2019-03-20T23:29:36.566Z,16.30
2019-03-20T23:32:12.890Z,14.43
2019-03-20T23:34:48.839Z,16.10
2019-03-20T23:37:23.855Z,17.57
2019-03-20T23:39:58.925Z,16.30
2019-03-20T23:42:33.940Z,17.87
2019-03-20T23:45:15.661Z,17.93
2019-03-20T23:47:56.567Z,15.67
2019-03-20T23:50:31.601Z,16.70
2019-03-20T23:53:06.662Z,15.73
2019-03-20T23:55:41.758Z,19.13
2019-03-20T23:58:17.518Z,17.67
